Time;durP1;ratioP1;P1;durP2;ratioP2;P2;SDS_P1;SDS_P2;PMS_P1;PMS_P2;Temp;Humidity;BMP_temperature;BMP_pressure;BME280_temperature;BME280_humidity;BME280_pressure;Samples;Min_cycle;Max_cycle;Signal;HPM_P1;HPM_P2
2023/03/15 00:00:02;;;;;;;7.20;1.90;;;;;;;5.63;53.33;99782.69;5023258;28;20041;-60
2023/03/15 00:02:30;;;;;;;10.93;2.55;;;;;;;5.56;53.67;99782.22;5029395;28;20423;-61
2023/03/15 00:04:57;;;;;;;9.18;2.15;;;;;;;5.61;53.33;99784.94;5027644;28;20049;-61
2023/03/15 00:07:24;;;;;;;9.90;2.97;;;;;;;5.69;53.53;99784.25;5027522;28;20065;-60
2023/03/15 00:09:51;;;;;;;11.35;2.85;;;;;;;5.58;53.07;99779.16;5026381;28;20049;-60
2023/03/15 00:12:21;;;;;;;11.13;2.17;;;;;;;5.60;53.10;99783.28;5029336;28;20053;-61
2023/03/15 00:14:50;;;;;;;7.68;2.40;;;;;;;5.52;53.10;99774.84;5028057;28;20407;-60
2023/03/15 00:17:17;;;;;;;10.07;2.40;;;;;;;5.62;52.79;99785.75;5027229;28;20050;-61
2023/03/15 00:19:46;;;;;;;7.47;2.03;;;;;;;5.65;53.62;99779.63;5026612;27;20514;-61
2023/03/15 00:22:14;;;;;;;7.20;2.50;;;;;;;5.73;54.35;99789.16;5027860;28;20056;-59
2023/03/15 00:24:41;;;;;;;7.75;2.53;;;;;;;5.81;54.88;99792.06;5029109;28;20381;-60
2023/03/15 00:27:08;;;;;;;8.82;3.00;;;;;;;5.90;56.08;99801.34;5027027;28;20049;-60
2023/03/15 00:29:35;;;;;;;10.55;2.78;;;;;;;6.00;56.42;99816.16;5021185;28;20045;-60
2023/03/15 00:32:04;;;;;;;9.65;4.03;;;;;;;6.07;56.19;99814.66;5028973;28;20049;-60
2023/03/15 00:34:32;;;;;;;8.37;2.77;;;;;;;6.16;56.89;99822.28;5025782;28;20061;-60
2023/03/15 00:36:59;;;;;;;9.07;2.53;;;;;;;6.08;56.51;99821.81;5029414;28;20054;-61
2023/03/15 00:39:27;;;;;;;9.05;2.30;;;;;;;6.05;57.22;99836.25;5025837;28;20054;-60
2023/03/15 00:41:55;;;;;;;7.55;2.30;;;;;;;6.03;57.25;99829.41;5028290;28;20053;-60
2023/03/15 00:44:23;;;;;;;7.30;2.65;;;;;;;6.06;57.70;99829.59;5027622;28;20056;-60
2023/03/15 00:46:51;;;;;;;9.25;2.75;;;;;;;6.02;58.39;99836.84;5026970;28;20402;-60
2023/03/15 00:49:20;;;;;;;7.53;2.33;;;;;;;5.99;58.93;99836.66;5027316;28;20470;-61
2023/03/15 00:51:47;;;;;;;10.73;3.37;;;;;;;5.97;59.34;99839.69;5025553;28;20060;-60
2023/03/15 00:54:14;;;;;;;12.18;3.03;;;;;;;5.89;59.25;99835.63;5021613;28;20060;-60
2023/03/15 00:56:41;;;;;;;6.78;2.60;;;;;;;5.84;59.38;99832.13;5027091;28;20427;-60
2023/03/15 00:59:09;;;;;;;8.48;2.90;;;;;;;5.73;60.50;99838.91;5027695;28;20053;-61
2023/03/15 01:01:37;;;;;;;9.88;2.95;;;;;;;5.77;60.58;99831.66;5028534;28;20045;-61
2023/03/15 01:04:04;;;;;;;10.88;4.75;;;;;;;5.62;60.81;99833.53;5026423;28;20058;-61
2023/03/15 01:06:33;;;;;;;13.50;4.32;;;;;;;5.67;61.14;99836.22;5027402;28;20434;-61
2023/03/15 01:09:00;;;;;;;9.65;3.35;;;;;;;5.71;60.36;99830.91;5027035;28;20431;-60
2023/03/15 01:11:28;;;;;;;10.27;3.88;;;;;;;5.70;60.94;99824.56;5029470;28;20053;-61
2023/03/15 01:13:57;;;;;;;12.13;4.18;;;;;;;5.65;61.65;99821.91;5029738;28;20059;-60
2023/03/15 01:16:25;;;;;;;10.43;4.28;;;;;;;5.63;61.48;99835.19;5029552;28;20049;-61
2023/03/15 01:18:53;;;;;;;9.82;4.50;;;;;;;5.61;61.89;99834.66;5028522;28;20360;-60
2023/03/15 01:21:23;;;;;;;6.80;3.97;;;;;;;5.67;61.53;99838.19;5029009;28;20058;-60
2023/03/15 01:23:51;;;;;;;10.18;4.25;;;;;;;5.68;61.71;99843.38;5029934;28;20053;-61
2023/03/15 01:26:20;;;;;;;7.93;4.82;;;;;;;5.71;62.33;99850.25;5029931;28;20503;-60
2023/03/15 01:28:47;;;;;;;10.15;4.78;;;;;;;5.70;62.36;99846.69;5029865;28;20053;-60
2023/03/15 01:31:18;;;;;;;7.72;4.50;;;;;;;5.77;62.75;99857.34;5029839;28;20045;-60
2023/03/15 01:33:45;;;;;;;8.75;4.70;;;;;;;5.61;62.98;99859.53;5028888;28;20410;-61
2023/03/15 01:36:13;;;;;;;9.40;5.40;;;;;;;5.62;64.24;99855.63;5010689;28;20062;-61
2023/03/15 01:38:41;;;;;;;7.85;4.97;;;;;;;5.63;64.29;99862.81;5011155;28;20057;-61
2023/03/15 01:41:10;;;;;;;6.82;5.00;;;;;;;5.70;64.48;99867.97;5009951;28;20484;-65
2023/03/15 01:43:37;;;;;;;9.60;5.28;;;;;;;5.68;64.61;99865.50;5010124;28;20060;-61
2023/03/15 01:46:14;;;;;;;10.10;5.82;;;;;;;5.69;64.48;99863.53;5010713;28;20057;-60
2023/03/15 01:48:44;;;;;;;8.02;5.43;;;;;;;5.66;65.04;99864.97;5009827;28;20507;-61
2023/03/15 01:51:16;;;;;;;6.78;4.80;;;;;;;5.51;65.49;99867.94;5028480;28;20057;-60
2023/03/15 01:53:48;;;;;;;8.07;4.80;;;;;;;5.47;65.77;99867.69;5028522;28;20068;-60
2023/03/15 01:56:17;;;;;;;7.47;4.93;;;;;;;5.32;66.51;99858.78;5028486;28;20045;-60
2023/03/15 01:58:47;;;;;;;8.85;4.47;;;;;;;5.19;66.72;99874.13;5029143;28;20054;-60
2023/03/15 02:01:15;;;;;;;7.70;4.60;;;;;;;4.97;67.66;99877.38;5029227;28;20487;-59
2023/03/15 02:03:45;;;;;;;5.80;4.25;;;;;;;4.91;68.02;99860.03;5030826;28;20056;-60
2023/03/15 02:06:17;;;;;;;6.57;4.32;;;;;;;4.82;68.88;99862.63;5030566;28;20050;-60
2023/03/15 02:08:49;;;;;;;5.43;3.60;;;;;;;4.84;68.84;99865.91;5032340;28;20049;-59
2023/03/15 02:11:21;;;;;;;6.07;3.50;;;;;;;4.88;69.07;99857.88;5032535;28;20053;-60
2023/03/15 02:13:49;;;;;;;7.18;3.80;;;;;;;4.85;68.98;99862.06;5032578;28;20404;-60
2023/03/15 02:16:17;;;;;;;5.70;3.80;;;;;;;4.81;69.43;99877.56;5032756;28;20049;-60
2023/03/15 02:18:44;;;;;;;5.57;3.53;;;;;;;4.79;69.45;99868.75;5032576;28;20501;-59
2023/03/15 02:21:24;;;;;;;7.28;3.95;;;;;;;4.85;69.65;99877.75;5030572;27;20404;-60
2023/03/15 02:24:03;;;;;;;4.05;3.05;;;;;;;4.89;69.46;99884.34;5032481;28;20416;-59
2023/03/15 02:26:37;;;;;;;3.28;2.80;;;;;;;4.91;69.59;99884.06;5032764;28;20484;-59
2023/03/15 02:29:06;;;;;;;5.53;3.28;;;;;;;4.88;69.36;99878.00;5032453;28;20060;-60
2023/03/15 02:31:36;;;;;;;4.63;3.20;;;;;;;4.94;69.39;99884.31;5032507;28;20349;-59
2023/03/15 02:34:05;;;;;;;4.13;3.40;;;;;;;4.93;69.24;99890.13;5032008;28;20061;-60
2023/03/15 02:36:33;;;;;;;4.13;3.10;;;;;;;4.86;69.57;99894.03;5031445;28;20053;-59
2023/03/15 02:39:02;;;;;;;4.10;3.00;;;;;;;4.94;68.91;99889.84;5031957;28;20077;-59
2023/03/15 02:41:33;;;;;;;4.80;3.35;;;;;;;4.95;68.84;99882.38;5032511;28;20049;-59
2023/03/15 02:44:06;;;;;;;4.82;3.85;;;;;;;4.96;69.49;99890.38;5031887;28;20057;-59
2023/03/15 02:46:36;;;;;;;5.30;4.00;;;;;;;5.00;69.41;99896.94;5032351;28;20061;-59
2023/03/15 02:49:04;;;;;;;5.45;4.28;;;;;;;4.99;69.04;99897.25;5032116;28;20057;-59
2023/03/15 02:51:33;;;;;;;5.07;4.57;;;;;;;4.96;69.42;99887.63;5046401;28;20049;-59
2023/03/15 02:54:01;;;;;;;6.37;4.90;;;;;;;5.02;69.37;99899.44;5052360;28;20523;-60
2023/03/15 02:56:28;;;;;;;5.22;4.72;;;;;;;5.07;69.25;99902.13;5052068;28;20391;-59
2023/03/15 02:58:56;;;;;;;6.22;4.75;;;;;;;5.12;68.83;99904.00;5052070;28;20499;-59
2023/03/15 03:01:23;;;;;;;8.25;5.30;;;;;;;5.15;68.97;99907.00;5052117;28;20056;-59
2023/03/15 03:03:52;;;;;;;6.30;5.10;;;;;;;5.26;68.89;99919.59;5039598;28;20054;-59
2023/03/15 03:06:19;;;;;;;6.93;5.20;;;;;;;5.32;68.55;99903.78;5045446;27;20064;-59
2023/03/15 03:08:47;;;;;;;6.85;5.28;;;;;;;5.38;68.37;99912.84;5051584;28;20060;-59
2023/03/15 03:11:15;;;;;;;6.40;5.70;;;;;;;5.40;68.39;99910.63;5041500;27;20485;-59
2023/03/15 03:13:43;;;;;;;7.05;5.63;;;;;;;5.45;68.26;99919.66;5031540;28;20054;-60
2023/03/15 03:16:10;;;;;;;6.57;5.35;;;;;;;5.46;67.88;99920.50;5031221;28;20131;-60
2023/03/15 03:18:38;;;;;;;8.40;5.40;;;;;;;5.38;68.19;99927.47;5031193;28;20411;-61
2023/03/15 03:21:07;;;;;;;6.70;5.32;;;;;;;5.45;67.79;99925.16;5031762;28;20525;-59
2023/03/15 03:23:35;;;;;;;6.95;5.65;;;;;;;5.51;67.84;99927.88;5031575;28;20054;-59
2023/03/15 03:26:04;;;;;;;6.90;6.20;;;;;;;5.41;68.16;99926.06;5031760;28;20054;-60
2023/03/15 03:28:32;;;;;;;6.93;6.22;;;;;;;5.45;67.86;99919.66;5031229;28;20058;-60
2023/03/15 03:31:00;;;;;;;6.45;5.15;;;;;;;5.47;67.67;99930.41;5031508;28;20068;-60
2023/03/15 03:33:27;;;;;;;6.80;5.55;;;;;;;5.34;68.01;99929.16;5030873;28;20588;-60
2023/03/15 03:36:02;;;;;;;6.07;5.47;;;;;;;5.35;68.20;99941.03;5028916;28;20494;-59
2023/03/15 03:38:31;;;;;;;8.60;6.80;;;;;;;5.40;68.75;99946.53;5032204;28;20061;-59
2023/03/15 03:40:58;;;;;;;6.88;5.93;;;;;;;5.48;68.82;99952.22;5031517;28;20049;-59
2023/03/15 03:43:25;;;;;;;9.00;6.93;;;;;;;5.48;68.43;99956.91;5031312;28;20049;-59
2023/03/15 03:45:53;;;;;;;7.40;6.38;;;;;;;5.57;68.71;99955.16;5031373;28;20064;-59
2023/03/15 03:48:20;;;;;;;8.95;6.38;;;;;;;5.62;68.04;99968.09;5032042;28;20130;-59
2023/03/15 03:50:47;;;;;;;8.70;6.55;;;;;;;5.66;68.06;99975.47;5030731;28;20065;-59
2023/03/15 03:53:14;;;;;;;6.97;6.10;;;;;;;5.66;68.74;99981.00;5030581;28;20050;-59
2023/03/15 03:55:45;;;;;;;8.35;7.47;;;;;;;5.70;68.15;99979.31;5031338;28;20053;-59
2023/03/15 03:58:12;;;;;;;7.90;6.60;;;;;;;5.68;68.03;99977.97;5031208;28;20061;-59
2023/03/15 04:00:40;;;;;;;7.70;6.68;;;;;;;5.64;67.96;99997.06;5031244;28;20050;-59
2023/03/15 04:03:08;;;;;;;8.20;6.63;;;;;;;5.69;68.08;99987.88;5030907;28;20049;-59
2023/03/15 04:05:35;;;;;;;7.68;5.95;;;;;;;5.67;68.44;99993.72;5028530;27;20053;-59
2023/03/15 04:08:02;;;;;;;7.40;6.53;;;;;;;5.74;68.11;99998.06;5030771;28;20507;-59
2023/03/15 04:10:33;;;;;;;7.95;6.00;;;;;;;5.76;67.43;99998.59;5031634;28;20049;-59
2023/03/15 04:13:02;;;;;;;7.07;5.68;;;;;;;5.72;67.57;100003.06;5030626;28;20412;-59
2023/03/15 04:15:30;;;;;;;7.32;5.40;;;;;;;5.70;66.62;100006.94;5030936;28;20050;-59
2023/03/15 04:17:57;;;;;;;6.03;5.05;;;;;;;5.74;66.92;100009.13;5031542;28;20499;-59
2023/03/15 04:20:26;;;;;;;5.95;5.25;;;;;;;5.73;67.27;100007.47;5042739;28;20057;-59
2023/03/15 04:22:54;;;;;;;5.88;5.28;;;;;;;5.74;67.49;100009.94;5050300;28;20411;-59
2023/03/15 04:25:25;;;;;;;7.88;5.53;;;;;;;5.76;67.51;100009.66;5050461;28;20068;-59
2023/03/15 04:27:58;;;;;;;7.28;6.47;;;;;;;5.74;67.51;100017.41;5049187;28;20060;-59
2023/03/15 04:30:27;;;;;;;7.45;5.93;;;;;;;5.76;67.01;100023.47;5050465;28;20053;-59
2023/03/15 04:32:57;;;;;;;5.93;5.13;;;;;;;5.80;67.42;100030.06;5050334;28;20391;-59
2023/03/15 04:35:26;;;;;;;6.40;5.38;;;;;;;5.78;67.28;100027.59;5022831;27;20058;-59
2023/03/15 04:37:53;;;;;;;7.60;5.35;;;;;;;5.74;67.28;100032.06;5010894;28;20061;-59
2023/03/15 04:40:22;;;;;;;7.63;6.28;;;;;;;5.73;67.24;100029.56;5024491;28;20057;-59
2023/03/15 04:42:50;;;;;;;7.13;5.82;;;;;;;5.78;67.28;100033.13;5030631;28;20049;-59
2023/03/15 04:45:17;;;;;;;7.82;6.20;;;;;;;5.74;67.75;100037.59;5030611;28;20415;-58
2023/03/15 04:47:46;;;;;;;5.80;4.72;;;;;;;5.72;67.12;100041.75;5031320;28;20050;-58
2023/03/15 04:50:13;;;;;;;6.43;5.25;;;;;;;5.67;67.49;100043.47;5030417;27;20061;-58
2023/03/15 04:52:41;;;;;;;5.88;5.00;;;;;;;5.76;66.68;100037.28;5029816;28;20053;-59
2023/03/15 04:55:09;;;;;;;8.45;5.32;;;;;;;5.80;67.19;100041.94;5030301;28;20054;-58
2023/03/15 04:57:36;;;;;;;7.43;5.95;;;;;;;5.83;67.38;100052.38;5030126;28;20408;-58
2023/03/15 05:00:06;;;;;;;6.93;5.78;;;;;;;5.90;67.81;100043.78;5029899;28;20060;-58
2023/03/15 05:02:34;;;;;;;7.20;6.03;;;;;;;5.96;67.30;100050.91;5029946;28;20054;-58
2023/03/15 05:05:03;;;;;;;8.32;5.47;;;;;;;6.00;66.84;100048.38;5038942;28;20049;-59
2023/03/15 05:07:30;;;;;;;7.95;5.90;;;;;;;6.01;67.54;100053.63;5031127;28;20502;-59
2023/03/15 05:09:57;;;;;;;9.27;6.65;;;;;;;6.03;67.09;100054.16;5029951;28;20053;-59
2023/03/15 05:12:25;;;;;;;6.88;6.03;;;;;;;6.05;66.71;100053.84;5030546;28;20064;-59
2023/03/15 05:14:52;;;;;;;8.18;6.78;;;;;;;6.06;67.24;100061.84;5029776;28;20058;-59
2023/03/15 05:17:21;;;;;;;7.90;6.35;;;;;;;6.13;66.75;100066.19;5029849;28;20064;-59
2023/03/15 05:19:48;;;;;;;9.63;7.18;;;;;;;6.14;66.99;100067.84;5028396;28;20417;-59
2023/03/15 05:22:17;;;;;;;7.25;6.40;;;;;;;6.10;66.72;100073.97;5029464;28;20068;-59
2023/03/15 05:24:44;;;;;;;9.07;6.73;;;;;;;6.05;66.75;100076.78;5029760;28;20053;-59
2023/03/15 05:27:12;;;;;;;7.70;5.88;;;;;;;6.08;66.46;100078.16;5029885;28;20057;-59
2023/03/15 05:29:39;;;;;;;8.13;6.30;;;;;;;6.01;65.78;100081.25;5029545;28;20054;-59
2023/03/15 05:32:07;;;;;;;7.75;5.78;;;;;;;6.03;65.83;100084.56;5029663;28;20053;-58
2023/03/15 05:34:34;;;;;;;8.02;5.68;;;;;;;6.03;65.84;100084.56;5028146;28;20049;-59
2023/03/15 05:37:01;;;;;;;6.65;5.40;;;;;;;6.04;65.33;100091.72;5029896;28;20060;-59
2023/03/15 05:39:33;;;;;;;7.20;5.40;;;;;;;6.07;65.87;100104.16;5029911;28;20060;-59
2023/03/15 05:42:03;;;;;;;6.90;5.15;;;;;;;6.04;66.10;100110.25;5030120;28;20060;-59
2023/03/15 05:44:30;;;;;;;8.18;4.85;;;;;;;6.04;65.31;100113.84;5029497;28;20061;-59
2023/03/15 05:46:57;;;;;;;5.13;4.45;;;;;;;6.09;65.05;100121.28;5027617;28;20411;-59
2023/03/15 05:49:25;;;;;;;9.25;5.28;;;;;;;6.06;65.17;100119.91;5023267;28;20050;-60
2023/03/15 05:51:52;;;;;;;6.40;4.72;;;;;;;6.11;64.92;100130.09;5030309;28;20054;-60
2023/03/15 05:54:19;;;;;;;7.88;4.85;;;;;;;6.12;65.10;100137.28;5028289;28;20058;-60
2023/03/15 05:56:48;;;;;;;8.13;5.35;;;;;;;6.16;65.32;100143.03;5027241;28;20058;-60
2023/03/15 05:59:15;;;;;;;7.97;4.47;;;;;;;6.17;65.10;100139.16;5027126;28;20049;-60
2023/03/15 06:01:42;;;;;;;7.65;5.20;;;;;;;6.21;64.93;100143.78;5025719;28;20049;-60
2023/03/15 06:04:09;;;;;;;5.88;4.80;;;;;;;6.20;65.44;100144.09;5026799;28;20049;-60
2023/03/15 06:06:37;;;;;;;7.38;5.53;;;;;;;6.22;65.33;100158.47;5026642;28;20518;-60
2023/03/15 06:09:04;;;;;;;6.55;5.10;;;;;;;6.25;65.45;100160.63;5027198;28;20052;-60
2023/03/15 06:11:31;;;;;;;8.73;5.50;;;;;;;6.32;64.87;100158.38;5026390;28;20060;-60
2023/03/15 06:14:00;;;;;;;5.88;5.28;;;;;;;6.38;65.11;100165.44;5024246;28;20458;-60
2023/03/15 06:16:27;;;;;;;8.52;5.75;;;;;;;6.34;64.65;100167.19;5024474;28;20049;-61
2023/03/15 06:18:54;;;;;;;6.88;5.05;;;;;;;6.38;65.12;100173.75;5023555;28;20050;-60
2023/03/15 06:21:22;;;;;;;7.93;5.95;;;;;;;6.37;64.72;100174.06;5048743;28;20060;-60
2023/03/15 06:23:49;;;;;;;8.50;5.80;;;;;;;6.39;65.14;100177.38;5027568;28;20045;-60
2023/03/15 06:26:18;;;;;;;6.22;5.63;;;;;;;6.42;65.16;100180.34;5026912;28;20053;-60
2023/03/15 06:28:45;;;;;;;12.02;8.18;;;;;;;6.37;64.30;100182.38;5027341;28;20057;-61
2023/03/15 06:31:14;;;;;;;9.85;7.43;;;;;;;6.39;64.65;100185.66;5025869;28;20415;-60
2023/03/15 06:33:41;;;;;;;10.13;7.85;;;;;;;6.38;64.36;100184.81;5022841;28;20050;-60
2023/03/15 06:36:09;;;;;;;13.48;10.60;;;;;;;6.23;64.74;100179.47;5025907;28;20060;-61
2023/03/15 06:38:36;;;;;;;11.90;9.70;;;;;;;6.26;64.39;100185.25;5027183;28;20053;-59
2023/03/15 06:41:05;;;;;;;10.35;8.02;;;;;;;6.22;65.07;100188.88;5028811;28;20060;-60
2023/03/15 06:43:32;;;;;;;14.30;11.07;;;;;;;6.19;64.92;100192.22;5027803;28;20053;-60
2023/03/15 06:45:59;;;;;;;13.35;10.15;;;;;;;6.18;65.48;100190.59;5028657;28;20054;-61
2023/03/15 06:48:28;;;;;;;11.48;9.70;;;;;;;6.19;65.70;100200.53;5025986;28;20049;-60
2023/03/15 06:50:55;;;;;;;12.52;9.73;;;;;;;6.22;65.69;100197.19;5029694;28;20385;-59
2023/03/15 06:53:23;;;;;;;11.07;9.50;;;;;;;6.16;65.52;100207.47;5019740;28;20050;-60
2023/03/15 06:55:51;;;;;;;13.73;11.10;;;;;;;5.93;66.16;100211.78;5031353;27;20064;-60
2023/03/15 06:58:18;;;;;;;14.23;10.68;;;;;;;6.02;65.94;100212.84;5025463;28;20060;-61
2023/03/15 07:00:47;;;;;;;14.93;10.60;;;;;;;6.08;66.36;100213.63;5032173;28;20050;-60
2023/03/15 07:03:14;;;;;;;13.38;10.32;;;;;;;6.11;66.13;100218.59;5029571;28;20060;-60
2023/03/15 07:05:43;;;;;;;14.55;10.07;;;;;;;6.14;65.94;100222.72;5029830;27;20053;-60
2023/03/15 07:08:10;;;;;;;14.43;10.55;;;;;;;6.17;65.66;100233.16;5027277;28;20482;-61
2023/03/15 07:10:37;;;;;;;13.02;11.20;;;;;;;6.24;65.79;100234.50;5031390;28;20131;-60
2023/03/15 07:13:05;;;;;;;11.57;9.93;;;;;;;6.26;66.36;100231.44;5029089;28;20052;-60
2023/03/15 07:15:32;;;;;;;12.43;9.80;;;;;;;6.33;66.37;100234.69;5028973;28;20076;-60
2023/03/15 07:18:00;;;;;;;12.05;8.93;;;;;;;6.46;65.35;100245.03;5023007;28;20056;-60
2023/03/15 07:20:28;;;;;;;12.30;9.35;;;;;;;6.59;65.55;100248.25;5025555;28;20057;-60
2023/03/15 07:22:56;;;;;;;11.77;9.18;;;;;;;6.80;64.38;100246.06;5027810;28;20415;-61
2023/03/15 07:25:24;;;;;;;10.50;9.27;;;;;;;7.09;64.01;100246.81;5025576;27;20056;-62
2023/03/15 07:27:53;;;;;;;11.02;8.57;;;;;;;7.48;63.03;100248.50;5025364;28;20069;-62
2023/03/15 07:30:21;;;;;;;13.10;9.55;;;;;;;7.76;62.34;100253.38;5022767;28;20054;-62
2023/03/15 07:32:49;;;;;;;11.05;8.77;;;;;;;8.09;61.86;100266.13;5027778;27;20053;-61
2023/03/15 07:35:18;;;;;;;8.82;7.88;;;;;;;8.26;60.73;100264.75;5029670;28;20053;-61
2023/03/15 07:37:46;;;;;;;11.23;8.20;;;;;;;8.36;60.22;100272.06;5030883;28;20053;-61
2023/03/15 07:40:16;;;;;;;12.38;9.10;;;;;;;8.38;59.89;100278.97;5031139;28;20487;-62
2023/03/15 07:42:43;;;;;;;11.18;8.77;;;;;;;8.33;59.73;100273.50;5031397;28;20427;-61
2023/03/15 07:45:11;;;;;;;12.95;9.68;;;;;;;8.36;59.69;100281.22;5031567;28;20163;-66
2023/03/15 07:47:39;;;;;;;13.00;9.52;;;;;;;8.29;59.71;100291.88;5030626;28;20068;-62
2023/03/15 07:50:07;;;;;;;10.75;8.43;;;;;;;8.45;58.76;100286.94;5030862;28;20050;-62
2023/03/15 07:52:34;;;;;;;13.52;9.77;;;;;;;8.48;58.50;100289.94;5030828;28;20061;-61
2023/03/15 07:55:03;;;;;;;13.07;9.82;;;;;;;8.41;58.33;100292.25;5031357;28;20106;-61
2023/03/15 07:57:32;;;;;;;12.02;9.45;;;;;;;8.40;58.15;100301.69;5030761;28;20054;-62
2023/03/15 07:59:59;;;;;;;11.85;9.85;;;;;;;8.30;58.57;100299.09;5030764;28;20068;-61
2023/03/15 08:02:27;;;;;;;13.48;9.02;;;;;;;8.17;58.10;100308.19;5029035;27;20058;-62
2023/03/15 08:04:54;;;;;;;12.32;9.32;;;;;;;7.97;58.96;100307.38;5030392;27;20045;-61
2023/03/15 08:07:22;;;;;;;11.23;8.80;;;;;;;7.97;58.75;100312.13;5011387;28;20073;-62
2023/03/15 08:09:49;;;;;;;11.63;9.48;;;;;;;8.08;58.00;100313.59;5011813;28;20507;-61
2023/03/15 08:12:16;;;;;;;10.88;9.57;;;;;;;8.01;57.59;100324.25;5012254;28;20404;-61
2023/03/15 08:14:45;;;;;;;11.38;9.40;;;;;;;8.07;58.42;100325.81;5011770;28;20049;-62
2023/03/15 08:17:15;;;;;;;12.45;10.68;;;;;;;8.06;58.54;100327.78;5012099;28;20489;-62
2023/03/15 08:19:42;;;;;;;11.25;8.80;;;;;;;8.29;58.32;100341.84;5027029;28;20056;-62
2023/03/15 08:22:10;;;;;;;10.48;8.77;;;;;;;9.22;56.50;100352.13;5029833;28;20065;-62
2023/03/15 08:24:37;;;;;;;12.00;8.63;;;;;;;10.67;53.07;100345.84;5031023;28;20065;-62
2023/03/15 08:27:05;;;;;;;11.55;8.48;;;;;;;12.17;51.08;100347.63;5031528;28;20053;-63
2023/03/15 08:29:32;;;;;;;10.57;7.95;;;;;;;15.48;45.31;100343.88;5030540;28;20056;-62
2023/03/15 08:32:01;;;;;;;10.18;7.43;;;;;;;16.11;41.98;100347.09;5030699;28;20057;-62
2023/03/15 08:34:28;;;;;;;9.43;7.65;;;;;;;15.54;42.20;100348.91;5018002;28;20061;-61
2023/03/15 08:36:55;;;;;;;11.20;7.95;;;;;;;15.09;42.19;100355.41;5011214;28;20487;-62
2023/03/15 08:39:23;;;;;;;10.90;9.43;;;;;;;14.19;42.93;100357.75;5010867;28;20053;-62
2023/03/15 08:41:50;;;;;;;9.30;8.40;;;;;;;13.91;42.88;100368.66;5010306;28;20062;-62
2023/03/15 08:44:17;;;;;;;8.98;7.80;;;;;;;13.06;44.08;100372.34;5011360;28;20050;-62
2023/03/15 08:46:45;;;;;;;12.35;8.55;;;;;;;12.39;45.31;100371.78;5010512;28;20054;-62
2023/03/15 08:49:13;;;;;;;9.57;8.63;;;;;;;12.40;45.32;100372.59;5022615;28;20057;-62
2023/03/15 08:51:40;;;;;;;9.48;7.25;;;;;;;12.73;45.16;100386.06;5029774;28;20065;-61
2023/03/15 08:54:08;;;;;;;11.00;7.82;;;;;;;12.64;45.18;100388.88;5029936;28;20050;-62
2023/03/15 08:56:35;;;;;;;10.70;8.55;;;;;;;12.76;44.83;100399.38;5030532;28;20053;-62
2023/03/15 08:59:03;;;;;;;9.63;7.03;;;;;;;13.57;43.30;100392.06;5029892;28;20060;-62
2023/03/15 09:01:30;;;;;;;9.23;7.05;;;;;;;13.12;43.03;100393.38;5030079;28;20084;-62
2023/03/15 09:03:57;;;;;;;9.38;7.45;;;;;;;14.71;42.29;100395.72;5028394;27;20057;-62
2023/03/15 09:06:26;;;;;;;8.93;5.68;;;;;;;18.52;36.38;100392.72;5028904;28;20050;-62
2023/03/15 09:08:53;;;;;;;9.75;5.75;;;;;;;20.93;32.09;100384.19;5028372;28;20403;-62
2023/03/15 09:11:21;;;;;;;6.32;3.63;;;;;;;23.63;27.85;100381.75;5027668;27;20061;-62
2023/03/15 09:13:48;;;;;;;6.57;3.50;;;;;;;25.28;25.71;100378.44;5029510;28;20057;-62
2023/03/15 09:16:16;;;;;;;4.18;3.35;;;;;;;25.35;23.60;100377.56;5030172;28;20392;-62
2023/03/15 09:18:44;;;;;;;5.70;3.28;;;;;;;26.00;24.07;100371.34;5029169;28;20057;-62
2023/03/15 09:21:11;;;;;;;5.22;3.75;;;;;;;24.22;24.76;100381.31;5028890;28;20057;-62
2023/03/15 09:23:40;;;;;;;4.65;3.90;;;;;;;25.68;22.62;100373.22;5029769;28;20060;-62
2023/03/15 09:26:07;;;;;;;4.78;3.30;;;;;;;25.39;22.79;100381.22;5028863;28;20498;-62
2023/03/15 09:28:34;;;;;;;4.32;2.90;;;;;;;23.18;24.42;100398.38;5028987;28;20495;-62
2023/03/15 09:31:05;;;;;;;5.93;2.70;;;;;;;21.39;26.68;100391.56;5029643;28;20068;-62
2023/03/15 09:33:33;;;;;;;4.15;2.80;;;;;;;20.08;28.35;100401.69;5028906;28;20056;-62
2023/03/15 09:36:00;;;;;;;5.70;2.90;;;;;;;19.27;29.69;100403.53;5029499;28;20056;-62
2023/03/15 09:38:27;;;;;;;5.18;3.15;;;;;;;20.28;28.92;100400.38;5024226;28;20511;-63
2023/03/15 09:40:59;;;;;;;3.78;2.72;;;;;;;23.65;25.04;100404.09;5026369;28;20057;-62
2023/03/15 09:43:48;;;;;;;5.15;2.85;;;;;;;20.93;26.71;100411.72;5021753;28;20046;-62
2023/03/15 09:46:27;;;;;;;5.93;2.53;;;;;;;19.03;29.57;100420.84;5016797;28;20068;-63
2023/03/15 09:48:59;;;;;;;7.13;2.78;;;;;;;17.64;30.83;100427.75;5021357;28;20076;-62
2023/03/15 09:51:35;;;;;;;6.00;2.63;;;;;;;16.67;32.21;100427.88;5034399;28;20505;-62
2023/03/15 09:54:08;;;;;;;6.25;2.75;;;;;;;16.28;33.27;100437.94;5018199;28;20057;-62
2023/03/15 09:56:44;;;;;;;6.38;2.63;;;;;;;22.27;27.27;100427.56;5019518;28;20438;-62
2023/03/15 09:59:15;;;;;;;5.35;2.45;;;;;;;25.80;22.68;100420.41;5023775;28;20056;-62
2023/03/15 10:01:44;;;;;;;5.10;1.80;;;;;;;27.99;20.02;100414.84;5020963;28;20128;-62
2023/03/15 10:04:19;;;;;;;6.72;2.17;;;;;;;29.97;18.55;100411.41;5016363;28;20049;-62
2023/03/15 10:06:53;;;;;;;5.45;2.00;;;;;;;31.67;16.87;100413.91;5020808;28;20057;-62
2023/03/15 10:09:23;;;;;;;3.72;2.15;;;;;;;33.04;15.69;100410.63;5018720;28;20688;-63
2023/03/15 10:12:02;;;;;;;5.10;2.63;;;;;;;33.85;15.52;100418.53;5016887;28;20057;-63
2023/03/15 10:14:56;;;;;;;4.68;2.70;;;;;;;35.31;14.00;100408.25;5028367;28;20064;-63
2023/03/15 10:17:35;;;;;;;6.35;2.95;;;;;;;35.57;14.44;100414.41;5021645;28;20491;-62
2023/03/15 10:20:09;;;;;;;6.03;2.88;;;;;;;34.22;14.66;100409.97;5022120;28;20360;-63
2023/03/15 10:22:44;;;;;;;6.53;3.28;;;;;;;36.22;13.54;100404.56;5031297;28;20439;-63
2023/03/15 10:25:16;;;;;;;5.70;3.03;;;;;;;37.57;12.00;100407.09;5020634;28;20053;-63
2023/03/15 10:27:49;;;;;;;6.53;2.70;;;;;;;38.27;11.67;100414.16;5026658;28;20423;-63
2023/03/15 10:30:19;;;;;;;5.15;2.60;;;;;;;39.26;10.74;100405.44;5026796;28;20072;-63
2023/03/15 10:32:52;;;;;;;8.70;2.80;;;;;;;37.75;10.93;100406.03;5026157;28;20058;-63
2023/03/15 10:35:20;;;;;;;4.40;2.40;;;;;;;37.70;10.62;100403.84;5024454;27;20053;-63
2023/03/15 10:37:47;;;;;;;6.43;2.30;;;;;;;38.65;10.00;100412.25;5027427;28;20061;-61
2023/03/15 10:40:15;;;;;;;6.72;2.30;;;;;;;39.54;9.64;100406.47;5025013;28;20053;-62
2023/03/15 10:42:45;;;;;;;7.15;2.50;;;;;;;40.32;9.52;100396.59;5027323;28;20076;-62
2023/03/15 10:45:20;;;;;;;5.82;2.40;;;;;;;37.63;10.63;100405.03;5025904;28;20057;-62
2023/03/15 10:47:48;;;;;;;8.88;2.50;;;;;;;33.77;12.49;100406.50;5026775;28;20070;-62
2023/03/15 10:50:26;;;;;;;7.70;2.60;;;;;;;30.47;14.64;100418.72;5023927;28;20104;-62
2023/03/15 10:52:56;;;;;;;7.47;3.65;;;;;;;27.67;17.32;100426.78;5023614;28;20058;-62
2023/03/15 10:55:32;;;;;;;5.90;3.25;;;;;;;25.45;19.39;100433.72;5020395;28;20154;-63
2023/03/15 10:58:22;;;;;;;5.88;3.00;;;;;;;23.56;20.54;100443.47;5023301;28;20067;-62
2023/03/15 11:00:52;;;;;;;5.38;2.63;;;;;;;22.18;21.35;100441.25;5023583;28;20057;-62
2023/03/15 11:03:21;;;;;;;7.72;2.67;;;;;;;21.35;22.49;100451.00;5025102;28;20057;-62
2023/03/15 11:05:51;;;;;;;7.38;3.25;;;;;;;27.79;17.15;100433.97;5032707;27;20068;-62
2023/03/15 11:08:20;;;;;;;6.43;2.70;;;;;;;30.46;15.52;100430.66;5037626;27;20076;-62
2023/03/15 11:10:55;;;;;;;6.43;2.50;;;;;;;31.15;13.98;100434.00;5022830;27;20053;-62
2023/03/15 11:13:25;;;;;;;6.55;2.33;;;;;;;30.81;14.28;100443.22;5023280;28;20058;-63
2023/03/15 11:16:02;;;;;;;6.20;2.60;;;;;;;26.78;16.74;100440.28;5023957;28;20045;-62
2023/03/15 11:18:34;;;;;;;7.00;2.47;;;;;;;24.43;19.15;100445.91;5022414;28;20054;-62
2023/03/15 11:21:05;;;;;;;6.85;2.55;;;;;;;22.86;20.91;100455.84;5020542;28;20041;-62
2023/03/15 11:23:36;;;;;;;5.55;2.63;;;;;;;21.51;22.01;100452.84;5035831;28;20486;-62
2023/03/15 11:26:05;;;;;;;5.82;3.00;;;;;;;20.35;22.51;100461.88;5023103;28;20049;-62
2023/03/15 11:28:37;;;;;;;7.22;2.83;;;;;;;26.91;17.76;100447.03;5022801;28;20471;-62
2023/03/15 11:31:06;;;;;;;7.28;3.20;;;;;;;30.66;14.73;100450.63;5023452;28;20056;-62
2023/03/15 11:33:45;;;;;;;6.40;2.67;;;;;;;33.44;12.89;100450.31;5024737;28;20066;-62
2023/03/15 11:36:17;;;;;;;6.53;2.55;;;;;;;35.22;12.26;100445.16;5020728;28;20480;-63
2023/03/15 11:38:46;;;;;;;6.18;2.88;;;;;;;30.96;13.89;100449.38;5023866;28;20069;-63